sensor_id;sensor_type;location;lat;lon;timestamp;temperature;humidity
39925;DHT22;25592;49.986;11.618;2023-05-10T00:02:39;17.50;68.60
39925;DHT22;25592;49.986;11.618;2023-05-10T00:05:26;17.40;68.30
39925;DHT22;25592;49.986;11.618;2023-05-10T00:08:11;17.40;68.30
39925;DHT22;25592;49.986;11.618;2023-05-10T00:10:56;17.40;68.30
39925;DHT22;25592;49.986;11.618;2023-05-10T00:13:42;17.40;68.30
39925;DHT22;25592;49.986;11.618;2023-05-10T00:16:27;17.30;67.80
39925;DHT22;25592;49.986;11.618;2023-05-10T00:19:12;17.30;68.10
39925;DHT22;25592;49.986;11.618;2023-05-10T00:21:58;17.30;67.40
39925;DHT22;25592;49.986;11.618;2023-05-10T00:24:43;17.10;67.40
39925;DHT22;25592;49.986;11.618;2023-05-10T00:27:29;17.00;67.70
39925;DHT22;25592;49.986;11.618;2023-05-10T00:30:14;17.00;67.80
39925;DHT22;25592;49.986;11.618;2023-05-10T00:33:00;16.90;67.50
39925;DHT22;25592;49.986;11.618;2023-05-10T00:35:45;16.80;67.40
39925;DHT22;25592;49.986;11.618;2023-05-10T00:38:31;16.80;67.60
39925;DHT22;25592;49.986;11.618;2023-05-10T00:41:16;16.50;67.60
39925;DHT22;25592;49.986;11.618;2023-05-10T00:44:02;16.30;67.90
39925;DHT22;25592;49.986;11.618;2023-05-10T00:46:48;16.40;68.00
39925;DHT22;25592;49.986;11.618;2023-05-10T00:49:35;16.30;67.90
39925;DHT22;25592;49.986;11.618;2023-05-10T00:52:21;16.30;68.20
39925;DHT22;25592;49.986;11.618;2023-05-10T00:55:09;16.20;68.10
39925;DHT22;25592;49.986;11.618;2023-05-10T00:57:56;16.10;68.40
39925;DHT22;25592;49.986;11.618;2023-05-10T01:00:42;16.20;68.50
39925;DHT22;25592;49.986;11.618;2023-05-10T01:03:29;16.20;68.30
39925;DHT22;25592;49.986;11.618;2023-05-10T01:06:14;16.00;68.70
39925;DHT22;25592;49.986;11.618;2023-05-10T01:08:59;16.10;68.70
39925;DHT22;25592;49.986;11.618;2023-05-10T01:11:45;16.10;68.40
39925;DHT22;25592;49.986;11.618;2023-05-10T01:14:31;16.10;68.80
39925;DHT22;25592;49.986;11.618;2023-05-10T01:17:16;16.20;69.10
39925;DHT22;25592;49.986;11.618;2023-05-10T01:20:02;16.30;69.00
39925;DHT22;25592;49.986;11.618;2023-05-10T01:23:20;16.40;68.80
39925;DHT22;25592;49.986;11.618;2023-05-10T01:26:28;16.50;68.60
39925;DHT22;25592;49.986;11.618;2023-05-10T01:29:18;16.50;68.40
39925;DHT22;25592;49.986;11.618;2023-05-10T01:32:33;16.60;68.50
39925;DHT22;25592;49.986;11.618;2023-05-10T01:41:28;16.70;68.40
39925;DHT22;25592;49.986;11.618;2023-05-10T01:44:24;16.70;68.60
39925;DHT22;25592;49.986;11.618;2023-05-10T01:47:38;16.80;69.40
39925;DHT22;25592;49.986;11.618;2023-05-10T01:50:29;16.80;68.40
39925;DHT22;25592;49.986;11.618;2023-05-10T01:53:18;16.90;68.70
39925;DHT22;25592;49.986;11.618;2023-05-10T01:56:04;16.80;68.60
39925;DHT22;25592;49.986;11.618;2023-05-10T01:58:51;16.80;68.50
39925;DHT22;25592;49.986;11.618;2023-05-10T02:01:37;16.80;68.80
39925;DHT22;25592;49.986;11.618;2023-05-10T02:04:23;16.90;68.80
39925;DHT22;25592;49.986;11.618;2023-05-10T02:07:10;16.90;68.90
39925;DHT22;25592;49.986;11.618;2023-05-10T02:09:56;16.90;69.00
39925;DHT22;25592;49.986;11.618;2023-05-10T02:12:45;16.90;69.10
39925;DHT22;25592;49.986;11.618;2023-05-10T02:15:32;16.90;69.80
39925;DHT22;25592;49.986;11.618;2023-05-10T02:18:18;16.90;69.50
39925;DHT22;25592;49.986;11.618;2023-05-10T02:21:04;16.90;70.00
39925;DHT22;25592;49.986;11.618;2023-05-10T02:23:51;16.90;70.50
39925;DHT22;25592;49.986;11.618;2023-05-10T02:26:38;17.00;70.70
39925;DHT22;25592;49.986;11.618;2023-05-10T02:29:25;17.00;70.60
39925;DHT22;25592;49.986;11.618;2023-05-10T02:32:12;17.00;70.70
39925;DHT22;25592;49.986;11.618;2023-05-10T02:34:58;17.00;70.60
39925;DHT22;25592;49.986;11.618;2023-05-10T02:37:45;17.00;70.60
39925;DHT22;25592;49.986;11.618;2023-05-10T02:40:32;17.00;70.00
39925;DHT22;25592;49.986;11.618;2023-05-10T02:43:18;17.00;70.00
39925;DHT22;25592;49.986;11.618;2023-05-10T02:46:04;16.90;69.80
39925;DHT22;25592;49.986;11.618;2023-05-10T02:48:49;16.80;69.70
39925;DHT22;25592;49.986;11.618;2023-05-10T02:51:37;16.80;70.10
39925;DHT22;25592;49.986;11.618;2023-05-10T02:54:29;16.80;69.90
39925;DHT22;25592;49.986;11.618;2023-05-10T02:57:16;16.90;69.80
39925;DHT22;25592;49.986;11.618;2023-05-10T03:00:03;16.80;69.90
39925;DHT22;25592;49.986;11.618;2023-05-10T03:02:49;16.70;70.00
39925;DHT22;25592;49.986;11.618;2023-05-10T03:05:34;16.70;70.20
39925;DHT22;25592;49.986;11.618;2023-05-10T03:08:20;16.70;70.30
39925;DHT22;25592;49.986;11.618;2023-05-10T03:11:23;16.70;70.20
39925;DHT22;25592;49.986;11.618;2023-05-10T03:20:20;16.60;70.70
39925;DHT22;25592;49.986;11.618;2023-05-10T03:23:21;16.40;70.60
39925;DHT22;25592;49.986;11.618;2023-05-10T03:26:07;16.40;71.40
39925;DHT22;25592;49.986;11.618;2023-05-10T03:28:53;16.30;71.70
39925;DHT22;25592;49.986;11.618;2023-05-10T03:31:39;16.30;71.60
39925;DHT22;25592;49.986;11.618;2023-05-10T03:34:24;16.50;72.00
39925;DHT22;25592;49.986;11.618;2023-05-10T03:37:10;16.50;72.50
39925;DHT22;25592;49.986;11.618;2023-05-10T03:39:56;16.50;71.80
39925;DHT22;25592;49.986;11.618;2023-05-10T03:42:41;16.40;71.80
39925;DHT22;25592;49.986;11.618;2023-05-10T03:45:27;16.20;72.00
39925;DHT22;25592;49.986;11.618;2023-05-10T03:48:12;16.10;73.10
39925;DHT22;25592;49.986;11.618;2023-05-10T03:50:59;16.10;72.70
39925;DHT22;25592;49.986;11.618;2023-05-10T03:53:44;16.00;72.70
39925;DHT22;25592;49.986;11.618;2023-05-10T03:56:30;15.90;73.90
39925;DHT22;25592;49.986;11.618;2023-05-10T03:59:15;15.90;73.80
39925;DHT22;25592;49.986;11.618;2023-05-10T04:02:00;15.80;74.10
39925;DHT22;25592;49.986;11.618;2023-05-10T04:04:46;15.80;74.60
39925;DHT22;25592;49.986;11.618;2023-05-10T04:07:31;15.80;74.20
39925;DHT22;25592;49.986;11.618;2023-05-10T04:10:16;15.80;74.50
39925;DHT22;25592;49.986;11.618;2023-05-10T04:13:03;15.70;75.00
39925;DHT22;25592;49.986;11.618;2023-05-10T04:15:48;15.60;76.70
39925;DHT22;25592;49.986;11.618;2023-05-10T04:18:34;15.60;76.50
39925;DHT22;25592;49.986;11.618;2023-05-10T04:21:19;15.50;76.70
39925;DHT22;25592;49.986;11.618;2023-05-10T04:24:05;15.40;77.40
39925;DHT22;25592;49.986;11.618;2023-05-10T04:26:51;15.40;77.20
39925;DHT22;25592;49.986;11.618;2023-05-10T04:29:36;15.40;78.70
39925;DHT22;25592;49.986;11.618;2023-05-10T04:32:22;15.30;78.40
39925;DHT22;25592;49.986;11.618;2023-05-10T04:35:07;15.10;78.90
39925;DHT22;25592;49.986;11.618;2023-05-10T04:37:54;15.20;80.10
39925;DHT22;25592;49.986;11.618;2023-05-10T04:40:39;15.20;80.80
39925;DHT22;25592;49.986;11.618;2023-05-10T04:43:25;15.10;81.40
39925;DHT22;25592;49.986;11.618;2023-05-10T04:46:11;15.10;83.40
39925;DHT22;25592;49.986;11.618;2023-05-10T04:48:56;15.00;83.60
39925;DHT22;25592;49.986;11.618;2023-05-10T04:51:42;15.00;84.40
39925;DHT22;25592;49.986;11.618;2023-05-10T04:54:27;15.10;84.30
39925;DHT22;25592;49.986;11.618;2023-05-10T04:57:13;15.20;84.50
39925;DHT22;25592;49.986;11.618;2023-05-10T04:59:59;15.10;86.30
39925;DHT22;25592;49.986;11.618;2023-05-10T05:02:45;15.10;87.10
39925;DHT22;25592;49.986;11.618;2023-05-10T05:05:30;15.10;86.60
39925;DHT22;25592;49.986;11.618;2023-05-10T05:08:16;15.20;86.10
39925;DHT22;25592;49.986;11.618;2023-05-10T05:11:01;15.20;86.50
39925;DHT22;25592;49.986;11.618;2023-05-10T05:13:47;15.30;86.50
39925;DHT22;25592;49.986;11.618;2023-05-10T05:16:32;15.30;88.30
39925;DHT22;25592;49.986;11.618;2023-05-10T05:19:17;15.20;87.70
39925;DHT22;25592;49.986;11.618;2023-05-10T05:22:03;15.10;89.20
39925;DHT22;25592;49.986;11.618;2023-05-10T05:24:48;15.10;89.50
39925;DHT22;25592;49.986;11.618;2023-05-10T05:27:34;14.80;90.40
39925;DHT22;25592;49.986;11.618;2023-05-10T05:30:19;14.70;90.00
39925;DHT22;25592;49.986;11.618;2023-05-10T05:33:05;14.50;90.50
39925;DHT22;25592;49.986;11.618;2023-05-10T05:35:50;14.50;90.50
39925;DHT22;25592;49.986;11.618;2023-05-10T05:38:36;14.50;91.00
39925;DHT22;25592;49.986;11.618;2023-05-10T05:41:21;14.40;91.30
39925;DHT22;25592;49.986;11.618;2023-05-10T05:44:07;14.20;91.90
39925;DHT22;25592;49.986;11.618;2023-05-10T05:46:52;14.10;91.90
39925;DHT22;25592;49.986;11.618;2023-05-10T05:49:37;14.10;92.00
39925;DHT22;25592;49.986;11.618;2023-05-10T05:52:23;14.20;92.20
39925;DHT22;25592;49.986;11.618;2023-05-10T05:55:08;14.30;92.10
39925;DHT22;25592;49.986;11.618;2023-05-10T05:57:54;14.30;92.50
39925;DHT22;25592;49.986;11.618;2023-05-10T06:00:39;14.30;92.30
39925;DHT22;25592;49.986;11.618;2023-05-10T06:03:25;14.20;92.70
39925;DHT22;25592;49.986;11.618;2023-05-10T06:06:10;14.00;93.20
39925;DHT22;25592;49.986;11.618;2023-05-10T06:08:55;14.10;93.60
39925;DHT22;25592;49.986;11.618;2023-05-10T06:11:41;14.10;93.90
39925;DHT22;25592;49.986;11.618;2023-05-10T06:14:26;14.10;93.50
39925;DHT22;25592;49.986;11.618;2023-05-10T06:17:12;14.20;93.40
39925;DHT22;25592;49.986;11.618;2023-05-10T06:19:57;14.20;93.80
39925;DHT22;25592;49.986;11.618;2023-05-10T06:22:43;14.20;93.80
39925;DHT22;25592;49.986;11.618;2023-05-10T06:25:28;14.50;93.60
39925;DHT22;25592;49.986;11.618;2023-05-10T06:28:13;14.50;93.70
39925;DHT22;25592;49.986;11.618;2023-05-10T06:30:59;14.70;93.20
39925;DHT22;25592;49.986;11.618;2023-05-10T06:33:45;14.70;93.80
39925;DHT22;25592;49.986;11.618;2023-05-10T06:36:30;14.70;93.70
39925;DHT22;25592;49.986;11.618;2023-05-10T06:39:16;14.80;93.80
39925;DHT22;25592;49.986;11.618;2023-05-10T06:42:01;14.80;92.70
39925;DHT22;25592;49.986;11.618;2023-05-10T06:44:47;15.00;91.40
39925;DHT22;25592;49.986;11.618;2023-05-10T06:47:33;15.20;92.80
39925;DHT22;25592;49.986;11.618;2023-05-10T06:50:22;15.50;92.00
39925;DHT22;25592;49.986;11.618;2023-05-10T06:53:08;15.70;91.70
39925;DHT22;25592;49.986;11.618;2023-05-10T06:55:53;15.80;92.20
39925;DHT22;25592;49.986;11.618;2023-05-10T06:58:39;15.90;92.00
39925;DHT22;25592;49.986;11.618;2023-05-10T07:01:24;16.00;92.70
39925;DHT22;25592;49.986;11.618;2023-05-10T07:04:10;16.10;91.90
39925;DHT22;25592;49.986;11.618;2023-05-10T07:06:56;16.30;92.30
39925;DHT22;25592;49.986;11.618;2023-05-10T07:09:41;16.30;92.90
39925;DHT22;25592;49.986;11.618;2023-05-10T07:12:27;16.30;93.30
39925;DHT22;25592;49.986;11.618;2023-05-10T07:15:12;16.40;92.40
39925;DHT22;25592;49.986;11.618;2023-05-10T07:17:58;16.40;92.30
39925;DHT22;25592;49.986;11.618;2023-05-10T07:20:43;16.20;92.60
39925;DHT22;25592;49.986;11.618;2023-05-10T07:23:28;16.10;92.90
39925;DHT22;25592;49.986;11.618;2023-05-10T07:26:14;16.10;93.00
39925;DHT22;25592;49.986;11.618;2023-05-10T07:29:00;16.20;93.30
39925;DHT22;25592;49.986;11.618;2023-05-10T07:31:46;16.10;93.70
39925;DHT22;25592;49.986;11.618;2023-05-10T07:34:31;16.30;93.10
39925;DHT22;25592;49.986;11.618;2023-05-10T07:37:16;16.20;93.20
39925;DHT22;25592;49.986;11.618;2023-05-10T07:40:02;16.30;93.40
39925;DHT22;25592;49.986;11.618;2023-05-10T07:42:48;16.40;93.80
39925;DHT22;25592;49.986;11.618;2023-05-10T07:45:33;16.40;93.60
39925;DHT22;25592;49.986;11.618;2023-05-10T07:48:18;16.50;94.30
39925;DHT22;25592;49.986;11.618;2023-05-10T07:51:04;16.50;93.60
39925;DHT22;25592;49.986;11.618;2023-05-10T07:53:51;16.50;93.70
39925;DHT22;25592;49.986;11.618;2023-05-10T07:56:36;16.40;94.40
39925;DHT22;25592;49.986;11.618;2023-05-10T07:59:22;16.30;94.10
39925;DHT22;25592;49.986;11.618;2023-05-10T08:02:08;16.50;93.80
39925;DHT22;25592;49.986;11.618;2023-05-10T08:04:53;16.60;94.60
39925;DHT22;25592;49.986;11.618;2023-05-10T08:07:39;16.70;93.20
39925;DHT22;25592;49.986;11.618;2023-05-10T08:10:24;16.60;94.50
39925;DHT22;25592;49.986;11.618;2023-05-10T08:13:09;16.50;94.30
39925;DHT22;25592;49.986;11.618;2023-05-10T08:15:55;16.60;94.30
39925;DHT22;25592;49.986;11.618;2023-05-10T08:18:41;16.70;94.00
39925;DHT22;25592;49.986;11.618;2023-05-10T08:21:26;16.70;94.00
39925;DHT22;25592;49.986;11.618;2023-05-10T08:24:11;16.80;94.40
39925;DHT22;25592;49.986;11.618;2023-05-10T08:26:57;16.90;94.30
39925;DHT22;25592;49.986;11.618;2023-05-10T08:29:42;16.90;94.10
39925;DHT22;25592;49.986;11.618;2023-05-10T08:32:34;16.90;94.30
39925;DHT22;25592;49.986;11.618;2023-05-10T08:35:20;17.00;94.50
39925;DHT22;25592;49.986;11.618;2023-05-10T08:38:05;17.00;94.40
39925;DHT22;25592;49.986;11.618;2023-05-10T08:40:54;17.10;94.50
39925;DHT22;25592;49.986;11.618;2023-05-10T08:43:43;16.90;94.50
39925;DHT22;25592;49.986;11.618;2023-05-10T08:46:33;17.00;95.20
39925;DHT22;25592;49.986;11.618;2023-05-10T08:49:20;16.90;95.80
39925;DHT22;25592;49.986;11.618;2023-05-10T08:52:07;17.00;94.90
39925;DHT22;25592;49.986;11.618;2023-05-10T08:54:53;17.20;94.40
39925;DHT22;25592;49.986;11.618;2023-05-10T08:57:38;17.20;94.50
39925;DHT22;25592;49.986;11.618;2023-05-10T09:00:24;17.40;94.20
39925;DHT22;25592;49.986;11.618;2023-05-10T09:03:10;17.60;95.00
39925;DHT22;25592;49.986;11.618;2023-05-10T09:05:55;17.70;95.20
39925;DHT22;25592;49.986;11.618;2023-05-10T09:08:41;17.90;96.10
39925;DHT22;25592;49.986;11.618;2023-05-10T09:11:27;18.00;95.50
39925;DHT22;25592;49.986;11.618;2023-05-10T09:14:15;18.10;95.10
39925;DHT22;25592;49.986;11.618;2023-05-10T09:17:01;18.10;94.60
39925;DHT22;25592;49.986;11.618;2023-05-10T09:19:46;18.10;94.80
39925;DHT22;25592;49.986;11.618;2023-05-10T09:22:33;18.00;95.20
39925;DHT22;25592;49.986;11.618;2023-05-10T09:25:19;17.80;95.20
39925;DHT22;25592;49.986;11.618;2023-05-10T09:28:08;17.70;95.30
39925;DHT22;25592;49.986;11.618;2023-05-10T09:30:53;17.70;95.20
39925;DHT22;25592;49.986;11.618;2023-05-10T09:33:48;17.70;94.90
39925;DHT22;25592;49.986;11.618;2023-05-10T09:36:33;17.70;95.40
39925;DHT22;25592;49.986;11.618;2023-05-10T09:39:19;17.70;95.50
39925;DHT22;25592;49.986;11.618;2023-05-10T09:42:08;17.90;95.60
39925;DHT22;25592;49.986;11.618;2023-05-10T09:44:53;17.90;95.60
39925;DHT22;25592;49.986;11.618;2023-05-10T09:47:39;18.10;96.60
39925;DHT22;25592;49.986;11.618;2023-05-10T09:50:25;18.30;96.00
39925;DHT22;25592;49.986;11.618;2023-05-10T09:53:14;18.50;94.80
39925;DHT22;25592;49.986;11.618;2023-05-10T09:55:59;18.60;94.50
39925;DHT22;25592;49.986;11.618;2023-05-10T09:58:45;18.50;94.10
39925;DHT22;25592;49.986;11.618;2023-05-10T10:01:30;18.50;94.20
39925;DHT22;25592;49.986;11.618;2023-05-10T10:04:17;18.40;94.70
39925;DHT22;25592;49.986;11.618;2023-05-10T10:07:04;18.50;94.30
39925;DHT22;25592;49.986;11.618;2023-05-10T10:09:49;18.50;94.30
39925;DHT22;25592;49.986;11.618;2023-05-10T10:12:35;18.70;94.00
39925;DHT22;25592;49.986;11.618;2023-05-10T10:15:22;18.80;93.80
39925;DHT22;25592;49.986;11.618;2023-05-10T10:18:07;18.90;93.80
39925;DHT22;25592;49.986;11.618;2023-05-10T10:20:58;19.10;94.90
39925;DHT22;25592;49.986;11.618;2023-05-10T10:23:43;19.30;93.40
39925;DHT22;25592;49.986;11.618;2023-05-10T10:26:28;19.40;92.90
39925;DHT22;25592;49.986;11.618;2023-05-10T10:36:02;19.30;93.20
39925;DHT22;25592;49.986;11.618;2023-05-10T10:41:35;19.20;93.10
39925;DHT22;25592;49.986;11.618;2023-05-10T10:47:28;19.00;92.70
39925;DHT22;25592;49.986;11.618;2023-05-10T10:50:16;18.90;92.70
39925;DHT22;25592;49.986;11.618;2023-05-10T10:53:10;18.80;92.70
39925;DHT22;25592;49.986;11.618;2023-05-10T10:56:15;18.60;92.50
39925;DHT22;25592;49.986;11.618;2023-05-10T10:59:00;18.40;92.40
39925;DHT22;25592;49.986;11.618;2023-05-10T11:01:51;18.50;92.60
39925;DHT22;25592;49.986;11.618;2023-05-10T11:04:43;18.70;92.70
39925;DHT22;25592;49.986;11.618;2023-05-10T11:07:32;18.90;92.70
39925;DHT22;25592;49.986;11.618;2023-05-10T11:10:20;19.30;92.90
39925;DHT22;25592;49.986;11.618;2023-05-10T11:13:09;19.70;92.20
39925;DHT22;25592;49.986;11.618;2023-05-10T11:15:55;19.90;91.50
39925;DHT22;25592;49.986;11.618;2023-05-10T11:19:03;20.00;90.80
39925;DHT22;25592;49.986;11.618;2023-05-10T11:24:57;20.40;89.20
39925;DHT22;25592;49.986;11.618;2023-05-10T11:27:44;20.40;89.70
39925;DHT22;25592;49.986;11.618;2023-05-10T11:30:30;20.40;90.30
39925;DHT22;25592;49.986;11.618;2023-05-10T11:33:17;20.40;90.10
39925;DHT22;25592;49.986;11.618;2023-05-10T11:36:02;20.20;89.60
39925;DHT22;25592;49.986;11.618;2023-05-10T11:38:48;19.90;89.90
39925;DHT22;25592;49.986;11.618;2023-05-10T11:41:34;19.60;90.30
39925;DHT22;25592;49.986;11.618;2023-05-10T11:44:19;19.40;91.30
39925;DHT22;25592;49.986;11.618;2023-05-10T11:47:05;19.00;91.40
39925;DHT22;25592;49.986;11.618;2023-05-10T11:49:51;18.80;92.00
39925;DHT22;25592;49.986;11.618;2023-05-10T11:52:36;18.50;92.40
39925;DHT22;25592;49.986;11.618;2023-05-10T11:55:23;18.40;93.10
39925;DHT22;25592;49.986;11.618;2023-05-10T11:58:09;18.40;93.30
39925;DHT22;25592;49.986;11.618;2023-05-10T12:00:54;18.40;93.30
39925;DHT22;25592;49.986;11.618;2023-05-10T12:03:40;18.50;93.60
39925;DHT22;25592;49.986;11.618;2023-05-10T12:06:30;18.60;93.80
39925;DHT22;25592;49.986;11.618;2023-05-10T12:09:16;18.60;93.50
39925;DHT22;25592;49.986;11.618;2023-05-10T12:12:16;18.70;93.80
39925;DHT22;25592;49.986;11.618;2023-05-10T12:15:02;18.60;94.20
39925;DHT22;25592;49.986;11.618;2023-05-10T12:17:49;18.60;94.60
39925;DHT22;25592;49.986;11.618;2023-05-10T12:20:35;18.70;94.30
39925;DHT22;25592;49.986;11.618;2023-05-10T12:23:20;18.80;94.00
39925;DHT22;25592;49.986;11.618;2023-05-10T12:26:08;18.80;93.70
39925;DHT22;25592;49.986;11.618;2023-05-10T12:28:55;18.80;93.20
39925;DHT22;25592;49.986;11.618;2023-05-10T12:31:57;19.00;93.70
39925;DHT22;25592;49.986;11.618;2023-05-10T12:34:46;19.10;93.80
39925;DHT22;25592;49.986;11.618;2023-05-10T12:37:32;19.20;93.10
39925;DHT22;25592;49.986;11.618;2023-05-10T12:40:20;19.30;93.00
39925;DHT22;25592;49.986;11.618;2023-05-10T12:43:06;19.50;93.10
39925;DHT22;25592;49.986;11.618;2023-05-10T12:45:51;19.70;92.70
39925;DHT22;25592;49.986;11.618;2023-05-10T12:48:38;19.70;92.50
39925;DHT22;25592;49.986;11.618;2023-05-10T12:51:23;19.80;92.10
39925;DHT22;25592;49.986;11.618;2023-05-10T12:54:09;19.80;92.40
39925;DHT22;25592;49.986;11.618;2023-05-10T12:56:54;19.70;92.30
39925;DHT22;25592;49.986;11.618;2023-05-10T12:59:40;19.70;92.30
39925;DHT22;25592;49.986;11.618;2023-05-10T13:02:25;19.60;92.30
39925;DHT22;25592;49.986;11.618;2023-05-10T13:05:11;19.30;92.70
39925;DHT22;25592;49.986;11.618;2023-05-10T13:07:58;19.10;93.60
39925;DHT22;25592;49.986;11.618;2023-05-10T13:10:43;19.10;93.80
39925;DHT22;25592;49.986;11.618;2023-05-10T13:13:28;19.00;94.60
39925;DHT22;25592;49.986;11.618;2023-05-10T13:16:14;19.00;94.60
39925;DHT22;25592;49.986;11.618;2023-05-10T13:18:59;19.00;94.80
39925;DHT22;25592;49.986;11.618;2023-05-10T13:21:45;19.00;94.90
39925;DHT22;25592;49.986;11.618;2023-05-10T13:24:30;19.00;95.10
39925;DHT22;25592;49.986;11.618;2023-05-10T13:27:16;18.90;95.50
39925;DHT22;25592;49.986;11.618;2023-05-10T13:30:02;18.90;95.20
39925;DHT22;25592;49.986;11.618;2023-05-10T13:32:48;18.90;95.80
39925;DHT22;25592;49.986;11.618;2023-05-10T13:35:33;18.90;95.50
39925;DHT22;25592;49.986;11.618;2023-05-10T13:38:19;18.90;95.10
39925;DHT22;25592;49.986;11.618;2023-05-10T13:41:06;18.90;95.30
39925;DHT22;25592;49.986;11.618;2023-05-10T13:43:51;18.90;95.60
39925;DHT22;25592;49.986;11.618;2023-05-10T13:46:37;19.00;95.40
39925;DHT22;25592;49.986;11.618;2023-05-10T13:49:23;19.00;95.90
39925;DHT22;25592;49.986;11.618;2023-05-10T13:52:09;19.00;95.60
39925;DHT22;25592;49.986;11.618;2023-05-10T13:54:54;19.00;95.40
39925;DHT22;25592;49.986;11.618;2023-05-10T13:57:40;19.00;95.30
39925;DHT22;25592;49.986;11.618;2023-05-10T14:00:25;19.00;96.10
39925;DHT22;25592;49.986;11.618;2023-05-10T14:03:11;19.00;96.80
39925;DHT22;25592;49.986;11.618;2023-05-10T14:05:57;18.80;95.30
39925;DHT22;25592;49.986;11.618;2023-05-10T14:08:42;18.80;95.20
39925;DHT22;25592;49.986;11.618;2023-05-10T14:11:27;18.80;95.60
39925;DHT22;25592;49.986;11.618;2023-05-10T14:14:13;18.80;93.70
39925;DHT22;25592;49.986;11.618;2023-05-10T14:16:58;18.80;93.50
39925;DHT22;25592;49.986;11.618;2023-05-10T14:19:44;18.70;93.30
39925;DHT22;25592;49.986;11.618;2023-05-10T14:22:29;18.70;93.20
39925;DHT22;25592;49.986;11.618;2023-05-10T14:25:15;18.60;94.10
39925;DHT22;25592;49.986;11.618;2023-05-10T14:28:00;18.80;93.70
39925;DHT22;25592;49.986;11.618;2023-05-10T14:30:46;18.90;94.20
39925;DHT22;25592;49.986;11.618;2023-05-10T14:33:32;18.90;93.70
39925;DHT22;25592;49.986;11.618;2023-05-10T14:36:18;18.90;94.00
39925;DHT22;25592;49.986;11.618;2023-05-10T14:39:03;18.70;94.40
39925;DHT22;25592;49.986;11.618;2023-05-10T14:41:48;18.80;94.00
39925;DHT22;25592;49.986;11.618;2023-05-10T14:44:34;18.90;93.80
39925;DHT22;25592;49.986;11.618;2023-05-10T14:47:19;19.00;93.70
39925;DHT22;25592;49.986;11.618;2023-05-10T14:50:05;19.00;93.50
39925;DHT22;25592;49.986;11.618;2023-05-10T14:52:51;19.10;93.20
39925;DHT22;25592;49.986;11.618;2023-05-10T14:55:36;19.20;93.20
39925;DHT22;25592;49.986;11.618;2023-05-10T14:58:21;19.10;93.20
39925;DHT22;25592;49.986;11.618;2023-05-10T15:01:07;19.20;93.50
39925;DHT22;25592;49.986;11.618;2023-05-10T15:03:53;19.20;93.70
39925;DHT22;25592;49.986;11.618;2023-05-10T15:06:39;19.00;93.70
39925;DHT22;25592;49.986;11.618;2023-05-10T15:09:24;19.10;93.60
39925;DHT22;25592;49.986;11.618;2023-05-10T15:12:10;19.20;94.20
39925;DHT22;25592;49.986;11.618;2023-05-10T15:14:56;19.10;93.50
39925;DHT22;25592;49.986;11.618;2023-05-10T15:17:41;19.10;93.60
39925;DHT22;25592;49.986;11.618;2023-05-10T15:20:27;19.10;93.80
39925;DHT22;25592;49.986;11.618;2023-05-10T15:23:12;19.20;93.60
39925;DHT22;25592;49.986;11.618;2023-05-10T15:25:58;19.10;93.10
39925;DHT22;25592;49.986;11.618;2023-05-10T15:28:43;19.10;93.10
39925;DHT22;25592;49.986;11.618;2023-05-10T15:31:29;19.10;93.70
39925;DHT22;25592;49.986;11.618;2023-05-10T15:34:14;18.90;93.30
39925;DHT22;25592;49.986;11.618;2023-05-10T15:36:59;18.70;94.40
39925;DHT22;25592;49.986;11.618;2023-05-10T15:39:45;18.40;96.70
39925;DHT22;25592;49.986;11.618;2023-05-10T15:42:31;18.30;96.10
39925;DHT22;25592;49.986;11.618;2023-05-10T15:45:16;18.30;96.00
39925;DHT22;25592;49.986;11.618;2023-05-10T15:48:02;18.30;97.10
39925;DHT22;25592;49.986;11.618;2023-05-10T15:50:47;18.40;95.70
39925;DHT22;25592;49.986;11.618;2023-05-10T15:53:33;18.50;96.00
39925;DHT22;25592;49.986;11.618;2023-05-10T15:56:18;18.50;95.50
39925;DHT22;25592;49.986;11.618;2023-05-10T15:59:04;18.50;95.80
39925;DHT22;25592;49.986;11.618;2023-05-10T16:01:50;18.40;95.50
39925;DHT22;25592;49.986;11.618;2023-05-10T16:04:36;18.50;96.00
39925;DHT22;25592;49.986;11.618;2023-05-10T16:07:21;18.40;95.80
39925;DHT22;25592;49.986;11.618;2023-05-10T16:10:09;18.50;96.00
39925;DHT22;25592;49.986;11.618;2023-05-10T16:12:54;18.50;96.20
39925;DHT22;25592;49.986;11.618;2023-05-10T16:15:40;18.50;96.20
39925;DHT22;25592;49.986;11.618;2023-05-10T16:18:26;18.60;96.60
39925;DHT22;25592;49.986;11.618;2023-05-10T16:21:11;18.50;96.20
39925;DHT22;25592;49.986;11.618;2023-05-10T16:23:58;18.60;96.50
39925;DHT22;25592;49.986;11.618;2023-05-10T16:26:44;18.60;96.00
39925;DHT22;25592;49.986;11.618;2023-05-10T16:29:29;18.50;96.90
39925;DHT22;25592;49.986;11.618;2023-05-10T16:32:15;18.30;97.40
39925;DHT22;25592;49.986;11.618;2023-05-10T16:35:01;18.30;97.10
39925;DHT22;25592;49.986;11.618;2023-05-10T16:37:46;18.00;96.70
39925;DHT22;25592;49.986;11.618;2023-05-10T16:40:32;18.00;96.90
39925;DHT22;25592;49.986;11.618;2023-05-10T16:43:17;17.90;96.80
39925;DHT22;25592;49.986;11.618;2023-05-10T16:46:09;17.90;96.80
39925;DHT22;25592;49.986;11.618;2023-05-10T16:48:54;17.90;96.70
39925;DHT22;25592;49.986;11.618;2023-05-10T16:51:39;17.90;96.80
39925;DHT22;25592;49.986;11.618;2023-05-10T16:54:25;17.80;96.70
39925;DHT22;25592;49.986;11.618;2023-05-10T16:57:10;17.80;96.50
39925;DHT22;25592;49.986;11.618;2023-05-10T16:59:55;17.60;96.30
39925;DHT22;25592;49.986;11.618;2023-05-10T17:02:41;17.60;96.60
39925;DHT22;25592;49.986;11.618;2023-05-10T17:05:26;17.70;97.00
39925;DHT22;25592;49.986;11.618;2023-05-10T17:08:13;17.60;96.70
39925;DHT22;25592;49.986;11.618;2023-05-10T17:11:02;17.60;96.20
39925;DHT22;25592;49.986;11.618;2023-05-10T17:13:48;17.60;96.00
39925;DHT22;25592;49.986;11.618;2023-05-10T17:16:34;17.50;96.00
39925;DHT22;25592;49.986;11.618;2023-05-10T17:19:20;17.50;96.20
39925;DHT22;25592;49.986;11.618;2023-05-10T17:22:08;17.60;96.00
39925;DHT22;25592;49.986;11.618;2023-05-10T17:24:54;17.60;96.10
39925;DHT22;25592;49.986;11.618;2023-05-10T17:27:39;17.40;96.10
39925;DHT22;25592;49.986;11.618;2023-05-10T17:30:25;17.40;96.00
39925;DHT22;25592;49.986;11.618;2023-05-10T17:33:12;17.30;95.90
39925;DHT22;25592;49.986;11.618;2023-05-10T17:35:58;17.20;96.40
39925;DHT22;25592;49.986;11.618;2023-05-10T17:38:43;17.10;96.50
39925;DHT22;25592;49.986;11.618;2023-05-10T17:41:29;17.20;96.60
39925;DHT22;25592;49.986;11.618;2023-05-10T17:44:14;17.20;96.70